createdAt,value
2018-01-23T00:00:03.601Z,6.89
2018-01-23T00:01:12.706Z,7.03
2018-01-23T00:02:21.538Z,6.97
2018-01-23T00:03:30.368Z,6.91
2018-01-23T00:04:39.498Z,6.89
2018-01-23T00:05:48.328Z,6.94
2018-01-23T00:06:57.432Z,6.89
2018-01-23T00:08:06.261Z,6.87
2018-01-23T00:09:15.369Z,6.79
2018-01-23T00:10:24.198Z,6.71
2018-01-23T00:11:33.025Z,6.77
2018-01-23T00:12:41.860Z,6.67
2018-01-23T00:13:50.962Z,6.91
2018-01-23T00:14:59.793Z,6.87
2018-01-23T00:16:08.718Z,6.8
2018-01-23T00:17:17.548Z,6.91
2018-01-23T00:18:26.379Z,6.73
2018-01-23T00:19:35.208Z,6.94
2018-01-23T00:20:44.039Z,6.69
2018-01-23T00:21:53.170Z,6.7
2018-01-23T00:23:02.001Z,6.66
2018-01-23T00:24:10.833Z,6.64
2018-01-23T00:25:19.662Z,6.69
2018-01-23T00:26:28.489Z,6.71
2018-01-23T00:27:37.471Z,6.7
2018-01-23T00:28:46.302Z,6.7
2018-01-23T00:29:55.134Z,6.73
2018-01-23T00:31:03.964Z,6.62
2018-01-23T00:32:12.793Z,6.67
2018-01-23T00:33:21.674Z,6.7
2018-01-23T00:34:30.505Z,6.62
2018-01-23T00:35:39.332Z,6.62
2018-01-23T00:36:48.158Z,6.61
2018-01-23T00:37:56.989Z,6.59
2018-01-23T00:39:05.938Z,6.62
2018-01-23T00:40:14.768Z,6.77
2018-01-23T00:41:23.877Z,6.61
2018-01-23T00:42:32.712Z,6.81
2018-01-23T00:43:41.543Z,6.64
2018-01-23T00:44:50.622Z,6.71
2018-01-23T00:45:59.453Z,6.67
2018-01-23T00:47:08.284Z,6.69
2018-01-23T00:48:17.389Z,6.71
2018-01-23T00:49:26.215Z,6.69
2018-01-23T00:50:35.145Z,6.74
2018-01-23T00:51:43.975Z,6.71
2018-01-23T00:52:52.809Z,6.61
2018-01-23T00:54:01.641Z,6.74
2018-01-23T00:55:10.469Z,6.61
2018-01-23T00:56:19.398Z,6.76
2018-01-23T00:57:28.229Z,6.84
2018-01-23T00:58:37.059Z,6.71
2018-01-23T00:59:45.887Z,6.74
2018-01-23T01:00:54.718Z,6.77
2018-01-23T01:02:03.545Z,6.85
2018-01-23T01:03:12.374Z,6.8
2018-01-23T01:04:21.205Z,6.84
2018-01-23T01:05:30.031Z,6.84
2018-01-23T01:06:38.861Z,6.85
2018-01-23T01:07:47.741Z,6.62
2018-01-23T01:08:56.576Z,6.71
2018-01-23T01:10:05.405Z,6.66
2018-01-23T01:11:14.233Z,6.61
2018-01-23T01:12:23.062Z,6.66
2018-01-23T01:13:32.193Z,6.66
2018-01-23T01:14:41.021Z,6.67
2018-01-23T01:15:49.850Z,6.62
2018-01-23T01:16:58.685Z,6.66
2018-01-23T01:18:07.512Z,6.69
2018-01-23T01:19:16.341Z,6.64
2018-01-23T01:20:25.170Z,6.64
2018-01-23T01:21:34.004Z,6.8
2018-01-23T01:22:42.832Z,6.66
2018-01-23T01:23:51.660Z,6.62
2018-01-23T01:25:00.640Z,6.7
2018-01-23T01:26:09.471Z,6.74
2018-01-23T01:27:18.299Z,6.64
2018-01-23T01:28:27.401Z,6.67
2018-01-23T01:29:36.234Z,6.62
2018-01-23T01:30:45.062Z,6.62
2018-01-23T01:31:53.894Z,6.61
2018-01-23T01:33:02.726Z,6.67
2018-01-23T01:34:11.553Z,6.62
2018-01-23T01:35:20.383Z,6.54
2018-01-23T01:36:29.215Z,6.51
2018-01-23T01:37:38.047Z,6.64
2018-01-23T01:38:47.151Z,6.64
2018-01-23T01:39:55.978Z,6.67
2018-01-23T01:41:04.809Z,6.62
2018-01-23T01:42:13.788Z,6.62
2018-01-23T01:43:22.617Z,6.64
2018-01-23T01:44:31.447Z,6.7
2018-01-23T01:45:40.278Z,6.62
2018-01-23T01:46:49.397Z,6.69
2018-01-23T01:47:58.309Z,6.66
2018-01-23T01:49:07.139Z,6.67
2018-01-23T01:50:15.968Z,6.66
2018-01-23T01:51:24.797Z,6.59
2018-01-23T01:52:33.631Z,6.64
2018-01-23T01:53:42.859Z,6.67
2018-01-23T01:54:51.687Z,6.52
2018-01-23T01:56:00.790Z,6.55
2018-01-23T01:57:09.621Z,6.52
2018-01-23T01:58:18.452Z,6.64
2018-01-23T01:59:27.579Z,6.62
2018-01-23T02:00:36.408Z,6.7
2018-01-23T02:01:45.510Z,6.59
2018-01-23T02:02:54.337Z,6.61
2018-01-23T02:04:03.168Z,6.52
2018-01-23T02:05:12.250Z,6.61
2018-01-23T02:06:21.077Z,6.54
2018-01-23T02:07:29.907Z,6.51
2018-01-23T02:08:38.737Z,6.64
2018-01-23T02:09:47.567Z,6.52
2018-01-23T02:10:57.072Z,6.59
2018-01-23T02:12:05.903Z,6.51
2018-01-23T02:13:14.733Z,6.58
2018-01-23T02:14:23.560Z,6.59
2018-01-23T02:15:32.388Z,6.66
2018-01-23T02:16:41.370Z,6.58
2018-01-23T02:17:50.196Z,6.66
2018-01-23T02:18:59.303Z,6.58
2018-01-23T02:20:08.129Z,6.69
2018-01-23T02:21:16.960Z,6.67
2018-01-23T02:22:25.788Z,6.62
2018-01-23T02:23:34.618Z,6.76
2018-01-23T02:24:43.447Z,6.61
2018-01-23T02:25:52.276Z,6.71
2018-01-23T02:27:01.108Z,6.62
2018-01-23T02:28:10.185Z,6.62
2018-01-23T02:29:19.014Z,6.69
2018-01-23T02:30:27.847Z,6.66
2018-01-23T02:31:36.675Z,6.56
2018-01-23T02:32:45.502Z,6.67
2018-01-23T02:33:54.630Z,6.62
2018-01-23T02:35:03.728Z,6.7
2018-01-23T02:36:12.559Z,6.67
2018-01-23T02:37:21.391Z,6.62
2018-01-23T02:38:30.222Z,6.67
2018-01-23T02:39:39.304Z,6.61
2018-01-23T02:40:48.134Z,6.54
2018-01-23T02:41:56.964Z,6.56
2018-01-23T02:43:06.136Z,6.67
2018-01-23T02:44:14.963Z,6.69
2018-01-23T02:45:23.795Z,6.62
2018-01-23T02:46:32.903Z,6.59
2018-01-23T02:47:41.731Z,6.62
2018-01-23T02:48:50.560Z,6.52
2018-01-23T02:49:59.390Z,6.59
2018-01-23T02:51:08.219Z,6.59
2018-01-23T02:52:17.047Z,6.64
2018-01-23T02:53:26.157Z,6.66
2018-01-23T02:54:34.985Z,6.64
2018-01-23T02:55:43.820Z,6.61
2018-01-23T02:56:52.753Z,6.7
2018-01-23T02:58:01.587Z,6.59
2018-01-23T02:59:10.691Z,6.66
2018-01-23T03:00:19.521Z,6.69
2018-01-23T03:01:28.349Z,6.58
2018-01-23T03:02:37.226Z,6.62
2018-01-23T03:03:46.058Z,6.69
2018-01-23T03:04:54.888Z,6.62
2018-01-23T03:06:03.719Z,6.61
2018-01-23T03:07:12.601Z,6.62
2018-01-23T03:08:21.750Z,6.67
2018-01-23T03:09:30.580Z,6.64
2018-01-23T03:10:39.410Z,6.55
2018-01-23T03:11:48.238Z,6.61
2018-01-23T03:12:57.066Z,6.67
2018-01-23T03:14:05.898Z,6.66
2018-01-23T03:15:14.727Z,6.66
2018-01-23T03:16:23.557Z,6.67
2018-01-23T03:17:32.387Z,6.62
2018-01-23T03:18:41.217Z,6.62
2018-01-23T03:19:50.048Z,6.61
2018-01-23T03:20:58.877Z,6.62
2018-01-23T03:22:07.706Z,6.64
2018-01-23T03:23:16.814Z,6.62
2018-01-23T03:24:25.645Z,6.62
2018-01-23T03:25:34.474Z,6.66
2018-01-23T03:26:43.304Z,6.58
2018-01-23T03:27:52.405Z,6.69
2018-01-23T03:29:01.508Z,6.79
2018-01-23T03:30:10.619Z,6.64
2018-01-23T03:31:19.602Z,6.56
2018-01-23T03:32:28.432Z,6.66
2018-01-23T03:33:37.264Z,6.66
2018-01-23T03:34:46.091Z,6.62
2018-01-23T03:35:54.919Z,6.64
2018-01-23T03:37:04.322Z,6.62
2018-01-23T03:38:13.153Z,6.64
2018-01-23T03:39:21.983Z,6.61
2018-01-23T03:40:30.811Z,6.66
2018-01-23T03:41:39.913Z,6.64
2018-01-23T03:42:48.894Z,6.79
2018-01-23T03:43:57.723Z,6.61
2018-01-23T03:45:06.552Z,6.71
2018-01-23T03:46:15.381Z,6.69
2018-01-23T03:47:24.209Z,6.71
2018-01-23T03:48:33.338Z,6.66
2018-01-23T03:49:42.166Z,6.67
2018-01-23T03:50:50.998Z,6.48
2018-01-23T03:51:59.827Z,6.55
2018-01-23T03:53:08.706Z,6.56
2018-01-23T03:54:17.585Z,6.59
2018-01-23T03:55:26.416Z,6.55
2018-01-23T03:56:35.249Z,6.52
2018-01-23T03:57:44.074Z,6.61
2018-01-23T03:58:52.902Z,6.48
2018-01-23T04:00:01.830Z,6.64
2018-01-23T04:01:10.660Z,6.61
2018-01-23T04:02:19.762Z,6.54
2018-01-23T04:03:28.590Z,6.62
2018-01-23T04:04:37.420Z,6.61
2018-01-23T04:05:46.525Z,6.61
2018-01-23T04:06:55.356Z,6.61
2018-01-23T04:08:04.182Z,6.66
2018-01-23T04:09:13.012Z,6.56
2018-01-23T04:10:21.845Z,6.66
2018-01-23T04:11:30.820Z,6.55
2018-01-23T04:12:39.649Z,6.62
2018-01-23T04:13:48.482Z,6.64
2018-01-23T04:14:57.585Z,6.64
2018-01-23T04:16:06.415Z,6.59
2018-01-23T04:17:15.392Z,6.56
2018-01-23T04:18:24.222Z,6.62
2018-01-23T04:19:33.053Z,6.64
2018-01-23T04:20:41.884Z,6.64
2018-01-23T04:21:50.716Z,6.62
2018-01-23T04:22:59.542Z,6.67
2018-01-23T04:24:08.371Z,6.66
2018-01-23T04:25:17.199Z,6.64
2018-01-23T04:26:26.028Z,6.66
2018-01-23T04:27:34.858Z,6.61
2018-01-23T04:28:44.066Z,6.62
2018-01-23T04:29:53.176Z,6.61
2018-01-23T04:31:02.006Z,6.61
2018-01-23T04:32:10.836Z,6.58
2018-01-23T04:33:19.665Z,6.64
2018-01-23T04:34:28.594Z,6.67
2018-01-23T04:35:37.422Z,6.67
2018-01-23T04:36:46.254Z,6.66
2018-01-23T04:37:55.085Z,6.67
2018-01-23T04:39:03.914Z,6.64
2018-01-23T04:40:12.894Z,6.62
2018-01-23T04:41:21.723Z,6.66
2018-01-23T04:42:30.560Z,6.66
2018-01-23T04:43:39.383Z,6.61
2018-01-23T04:44:48.211Z,6.71
2018-01-23T04:45:57.250Z,6.74
2018-01-23T04:47:06.083Z,6.7
2018-01-23T04:48:15.184Z,6.67
2018-01-23T04:49:24.015Z,6.73
2018-01-23T04:50:32.844Z,6.7
2018-01-23T04:51:41.973Z,6.74
2018-01-23T04:52:50.801Z,6.73
2018-01-23T04:53:59.630Z,6.64
2018-01-23T04:55:08.458Z,6.73
2018-01-23T04:56:17.288Z,6.66
2018-01-23T04:57:26.117Z,6.74
2018-01-23T04:58:34.948Z,6.73
2018-01-23T04:59:43.775Z,6.62
2018-01-23T05:00:52.605Z,6.67
2018-01-23T05:02:01.437Z,6.61
2018-01-23T05:03:10.265Z,6.67
2018-01-23T05:04:19.094Z,6.62
2018-01-23T05:05:27.924Z,6.7
2018-01-23T05:06:36.752Z,6.66
2018-01-23T05:07:45.583Z,6.69
2018-01-23T05:08:54.816Z,6.73
2018-01-23T05:10:03.646Z,6.7
2018-01-23T05:11:12.479Z,6.73
2018-01-23T05:12:21.587Z,6.74
2018-01-23T05:13:30.416Z,6.67
2018-01-23T05:14:39.398Z,6.69
2018-01-23T05:15:48.230Z,6.66
2018-01-23T05:16:57.058Z,6.79
2018-01-23T05:18:05.891Z,6.81
2018-01-23T05:19:14.721Z,6.79
2018-01-23T05:20:23.851Z,6.76
2018-01-23T05:21:32.679Z,6.87
2018-01-23T05:22:41.783Z,6.84
2018-01-23T05:23:50.614Z,6.76
2018-01-23T05:24:59.445Z,6.81
2018-01-23T05:26:08.373Z,6.7
2018-01-23T05:27:17.207Z,6.81
2018-01-23T05:28:26.307Z,6.77
2018-01-23T05:29:35.135Z,6.77
2018-01-23T05:30:43.963Z,6.77
2018-01-23T05:31:53.044Z,6.77
2018-01-23T05:33:02.151Z,6.81
2018-01-23T05:34:10.981Z,6.88
2018-01-23T05:35:19.809Z,6.89
2018-01-23T05:36:28.642Z,6.84
2018-01-23T05:37:37.520Z,6.74
2018-01-23T05:38:46.351Z,6.8
2018-01-23T05:39:55.182Z,6.77
2018-01-23T05:41:04.013Z,6.76
2018-01-23T05:42:13.117Z,6.76
2018-01-23T05:43:22.045Z,6.67
2018-01-23T05:44:30.876Z,6.67
2018-01-23T05:45:39.708Z,6.7
2018-01-23T05:46:48.537Z,6.81
2018-01-23T05:47:57.363Z,6.79
2018-01-23T05:49:06.295Z,6.74
2018-01-23T05:50:15.124Z,6.79
2018-01-23T05:51:23.955Z,6.88
2018-01-23T05:52:32.785Z,6.84
2018-01-23T05:53:41.614Z,6.79
2018-01-23T05:54:50.595Z,6.76
2018-01-23T05:55:59.424Z,6.74
2018-01-23T05:57:08.253Z,6.69
2018-01-23T05:58:17.355Z,6.79
2018-01-23T05:59:26.184Z,6.76
2018-01-23T06:00:35.066Z,6.77
2018-01-23T06:01:43.893Z,6.81
2018-01-23T06:02:52.720Z,6.77
2018-01-23T06:04:01.549Z,6.77
2018-01-23T06:05:10.380Z,6.84
2018-01-23T06:06:19.262Z,6.81
2018-01-23T06:07:28.087Z,6.8
2018-01-23T06:08:36.916Z,6.77
2018-01-23T06:09:45.743Z,6.89
2018-01-23T06:10:54.574Z,6.84
2018-01-23T06:12:03.505Z,6.77
2018-01-23T06:13:12.337Z,6.81
2018-01-23T06:14:21.168Z,6.74
2018-01-23T06:15:29.993Z,6.74
2018-01-23T06:16:38.827Z,6.81
2018-01-23T06:17:47.758Z,6.79
2018-01-23T06:18:56.586Z,6.73
2018-01-23T06:20:05.686Z,6.79
2018-01-23T06:21:14.516Z,6.85
2018-01-23T06:22:23.348Z,6.76
2018-01-23T06:23:32.230Z,6.87
2018-01-23T06:24:41.060Z,6.77
2018-01-23T06:25:49.890Z,6.73
2018-01-23T06:26:58.718Z,6.77
2018-01-23T06:28:07.550Z,6.79
2018-01-23T06:29:16.388Z,6.87
2018-01-23T06:30:25.501Z,6.79
2018-01-23T06:31:34.608Z,6.77
2018-01-23T06:32:43.437Z,6.76
2018-01-23T06:33:52.265Z,6.73
2018-01-23T06:35:01.096Z,6.85
2018-01-23T06:36:09.929Z,6.71
2018-01-23T06:37:19.306Z,6.76
2018-01-23T06:38:28.138Z,6.81
2018-01-23T06:39:36.968Z,6.87
2018-01-23T06:40:45.801Z,6.74
2018-01-23T06:41:54.630Z,6.8
2018-01-23T06:43:03.461Z,6.73
2018-01-23T06:44:12.289Z,6.79
2018-01-23T06:45:21.119Z,6.77
2018-01-23T06:46:29.951Z,6.91
2018-01-23T06:47:38.779Z,6.76
2018-01-23T06:48:47.612Z,6.74
2018-01-23T06:49:56.719Z,6.76
2018-01-23T06:51:05.553Z,6.7
2018-01-23T06:52:14.379Z,6.69
2018-01-23T06:53:23.210Z,6.66
2018-01-23T06:54:32.045Z,6.8
2018-01-23T06:55:40.872Z,6.76
2018-01-23T06:56:49.703Z,6.77
2018-01-23T06:57:58.531Z,6.73
2018-01-23T06:59:07.359Z,6.69
2018-01-23T07:00:16.190Z,6.69
2018-01-23T07:01:25.020Z,6.71
2018-01-23T07:02:33.846Z,6.84
2018-01-23T07:03:42.676Z,6.74
2018-01-23T07:04:51.907Z,6.67
2018-01-23T07:06:00.736Z,6.69
2018-01-23T07:07:09.569Z,6.79
2018-01-23T07:08:18.423Z,6.76
2018-01-23T07:09:27.232Z,6.81
2018-01-23T07:10:36.636Z,6.76
2018-01-23T07:11:45.466Z,6.76
2018-01-23T07:12:54.294Z,6.76
2018-01-23T07:14:03.401Z,6.73
2018-01-23T07:15:12.233Z,6.76
2018-01-23T07:16:21.162Z,6.79
2018-01-23T07:17:29.990Z,6.79
2018-01-23T07:18:38.819Z,6.79
2018-01-23T07:19:47.650Z,6.74
2018-01-23T07:20:56.479Z,6.84
2018-01-23T07:22:05.465Z,6.76
2018-01-23T07:23:14.290Z,6.81
2018-01-23T07:24:23.127Z,6.81
2018-01-23T07:25:31.951Z,6.8
2018-01-23T07:26:41.052Z,6.85
2018-01-23T07:27:50.184Z,6.84
2018-01-23T07:28:59.020Z,6.74
2018-01-23T07:30:07.850Z,6.76
2018-01-23T07:31:16.681Z,6.76
2018-01-23T07:32:25.511Z,6.79
2018-01-23T07:33:34.393Z,6.71
2018-01-23T07:34:43.222Z,6.77
2018-01-23T07:35:52.053Z,6.79
2018-01-23T07:37:00.885Z,6.79
2018-01-23T07:38:09.990Z,6.87
2018-01-23T07:39:18.921Z,6.84
2018-01-23T07:40:27.757Z,6.89
2018-01-23T07:41:36.587Z,6.89
2018-01-23T07:42:45.417Z,6.88
2018-01-23T07:43:54.245Z,6.77
2018-01-23T07:45:03.476Z,6.84
2018-01-23T07:46:12.582Z,6.81
2018-01-23T07:47:21.413Z,6.79
2018-01-23T07:48:30.242Z,6.84
2018-01-23T07:49:39.073Z,6.87
2018-01-23T07:50:48.004Z,6.76
2018-01-23T07:51:56.834Z,6.84
2018-01-23T07:53:05.661Z,6.76
2018-01-23T07:54:14.490Z,6.87
2018-01-23T07:55:23.326Z,6.84
2018-01-23T07:56:32.155Z,6.88
2018-01-23T07:57:40.984Z,6.88
2018-01-23T07:58:49.818Z,6.84
2018-01-23T07:59:58.645Z,6.87
2018-01-23T08:01:07.495Z,6.84
2018-01-23T08:02:16.606Z,6.8
2018-01-23T08:03:25.435Z,6.87
2018-01-23T08:04:34.268Z,6.84
2018-01-23T08:05:43.369Z,6.87
2018-01-23T08:06:52.201Z,6.81
2018-01-23T08:08:01.307Z,6.88
2018-01-23T08:09:10.415Z,6.91
2018-01-23T08:10:19.246Z,6.88
2018-01-23T08:11:28.403Z,6.85
2018-01-23T08:12:37.229Z,6.88
2018-01-23T08:13:46.059Z,6.87
2018-01-23T08:14:54.890Z,6.89
2018-01-23T08:16:03.720Z,6.89
2018-01-23T08:17:12.550Z,6.88
2018-01-23T08:18:21.380Z,6.8
2018-01-23T08:19:30.362Z,6.92
2018-01-23T08:20:39.197Z,6.8
2018-01-23T08:21:48.026Z,6.91
2018-01-23T08:22:56.857Z,6.89
2018-01-23T08:24:05.690Z,6.92
2018-01-23T08:25:14.823Z,6.88
2018-01-23T08:26:23.652Z,6.89
2018-01-23T08:27:32.480Z,6.88
2018-01-23T08:28:41.318Z,6.95
2018-01-23T08:29:50.420Z,6.87
2018-01-23T08:30:59.351Z,6.87
2018-01-23T08:32:08.189Z,6.94
2018-01-23T08:33:17.018Z,6.95
2018-01-23T08:34:25.850Z,7.02
2018-01-23T08:35:34.680Z,6.99
2018-01-23T08:36:43.507Z,6.97
2018-01-23T08:37:52.338Z,7.06
2018-01-23T08:39:01.172Z,7.02
2018-01-23T08:40:10.004Z,7.02
2018-01-23T08:41:18.834Z,7.02
2018-01-23T08:42:27.719Z,7.05
2018-01-23T08:43:36.550Z,7.07
2018-01-23T08:44:45.380Z,7.03
2018-01-23T08:45:54.208Z,7.13
2018-01-23T08:47:03.317Z,7.13
2018-01-23T08:48:12.399Z,7.13
2018-01-23T08:49:21.232Z,7.1
2018-01-23T08:50:30.067Z,7.1
2018-01-23T08:51:39.171Z,7.15
2018-01-23T08:52:48.003Z,7.09
2018-01-23T08:53:56.834Z,7.15
2018-01-23T08:55:05.668Z,7.21
2018-01-23T08:56:14.498Z,7.24
2018-01-23T08:57:23.330Z,7.23
2018-01-23T08:58:32.161Z,7.12
2018-01-23T08:59:41.092Z,7.2
2018-01-23T09:00:49.925Z,7.13
2018-01-23T09:01:58.755Z,7.21
2018-01-23T09:03:07.586Z,7.16
2018-01-23T09:04:16.417Z,7.15
2018-01-23T09:05:25.400Z,7.21
2018-01-23T09:06:34.228Z,7.21
2018-01-23T09:07:43.060Z,7.3
2018-01-23T09:08:51.892Z,7.16
2018-01-23T09:10:00.725Z,7.17
2018-01-23T09:11:09.558Z,7.23
2018-01-23T09:12:18.387Z,7.27
2018-01-23T09:13:27.221Z,7.07
2018-01-23T09:14:36.051Z,7.21
2018-01-23T09:15:44.879Z,7.12
2018-01-23T09:16:53.811Z,7.4
2018-01-23T09:18:02.644Z,7.3
2018-01-23T09:19:11.476Z,7.35
2018-01-23T09:20:20.309Z,7.27
2018-01-23T09:21:29.141Z,7.3
2018-01-23T09:22:38.023Z,7.34
2018-01-23T09:23:46.853Z,7.31
2018-01-23T09:24:55.682Z,7.32
2018-01-23T09:26:04.515Z,7.32
2018-01-23T09:27:13.345Z,7.37
2018-01-23T09:28:22.177Z,7.43
2018-01-23T09:29:31.008Z,7.37
2018-01-23T09:30:39.837Z,7.32
2018-01-23T09:31:48.669Z,7.3
2018-01-23T09:32:57.499Z,7.3
2018-01-23T09:34:06.633Z,7.45
2018-01-23T09:35:15.467Z,7.31
2018-01-23T09:36:24.347Z,7.46
2018-01-23T09:37:33.132Z,7.46
2018-01-23T09:38:41.963Z,7.34
2018-01-23T09:39:51.247Z,7.5
2018-01-23T09:41:00.081Z,7.35
2018-01-23T09:42:08.913Z,7.28
2018-01-23T09:43:17.744Z,7.37
2018-01-23T09:44:26.575Z,7.35
2018-01-23T09:45:35.415Z,7.35
2018-01-23T09:46:44.243Z,7.32
2018-01-23T09:47:53.075Z,7.31
2018-01-23T09:49:01.908Z,7.28
2018-01-23T09:50:10.737Z,7.3
2018-01-23T09:51:19.567Z,7.43
2018-01-23T09:52:28.399Z,7.4
2018-01-23T09:53:37.234Z,7.42
2018-01-23T09:54:46.335Z,7.52
2018-01-23T09:55:55.441Z,7.42
2018-01-23T09:57:04.572Z,7.48
2018-01-23T09:58:13.411Z,7.46
2018-01-23T09:59:22.236Z,7.46
2018-01-23T10:00:31.074Z,7.43
2018-01-23T10:01:39.909Z,7.46
2018-01-23T10:02:49.113Z,7.55
2018-01-23T10:03:57.945Z,7.52
2018-01-23T10:05:06.781Z,7.58
2018-01-23T10:06:15.612Z,7.57
2018-01-23T10:07:24.442Z,7.58
2018-01-23T10:08:33.524Z,7.53
2018-01-23T10:09:42.356Z,7.52
2018-01-23T10:10:51.190Z,7.52
2018-01-23T10:12:00.298Z,7.57
2018-01-23T10:13:09.128Z,7.57
2018-01-23T10:14:17.962Z,7.46
2018-01-23T10:15:27.342Z,7.45
2018-01-23T10:16:36.174Z,7.45
2018-01-23T10:17:45.011Z,7.53
2018-01-23T10:18:54.157Z,7.52
2018-01-23T10:20:03.151Z,7.5
2018-01-23T10:21:11.983Z,7.5
2018-01-23T10:22:20.814Z,7.55
2018-01-23T10:23:29.648Z,7.52
2018-01-23T10:24:38.481Z,7.61
2018-01-23T10:25:47.365Z,7.57
2018-01-23T10:26:56.194Z,7.53
2018-01-23T10:28:05.025Z,7.55
2018-01-23T10:29:13.858Z,7.57
2018-01-23T10:30:22.688Z,7.57
2018-01-23T10:31:31.620Z,7.67
2018-01-23T10:32:40.452Z,7.6
2018-01-23T10:33:49.285Z,7.61
2018-01-23T10:34:58.119Z,7.69
2018-01-23T10:36:06.953Z,7.63
2018-01-23T10:37:15.784Z,7.67
2018-01-23T10:38:24.617Z,7.63
2018-01-23T10:39:33.449Z,7.72
2018-01-23T10:40:42.282Z,7.58
2018-01-23T10:41:51.668Z,7.67
2018-01-23T10:43:00.873Z,7.61
2018-01-23T10:44:09.705Z,7.64
2018-01-23T10:45:18.538Z,7.67
2018-01-23T10:46:27.371Z,7.64
2018-01-23T10:47:36.203Z,7.74
2018-01-23T10:48:45.334Z,7.75
2018-01-23T10:49:54.166Z,7.69
2018-01-23T10:51:02.998Z,7.8
2018-01-23T10:52:11.828Z,7.92
2018-01-23T10:53:20.663Z,7.79
2018-01-23T10:54:29.944Z,8.04
2018-01-23T10:55:38.724Z,7.82
2018-01-23T10:56:47.555Z,7.87
2018-01-23T10:57:56.387Z,7.77
2018-01-23T10:59:05.219Z,7.92
2018-01-23T11:00:14.101Z,7.89
2018-01-23T11:01:22.933Z,7.85
2018-01-23T11:02:31.764Z,7.92
2018-01-23T11:03:40.596Z,7.92
2018-01-23T11:04:49.428Z,7.9
2018-01-23T11:05:58.511Z,7.86
2018-01-23T11:07:07.347Z,7.92
2018-01-23T11:08:16.177Z,7.79
2018-01-23T11:09:25.024Z,7.92
2018-01-23T11:10:33.842Z,7.95
2018-01-23T11:11:42.725Z,7.87
2018-01-23T11:12:51.557Z,7.9
2018-01-23T11:14:00.390Z,7.92
2018-01-23T11:15:09.220Z,7.87
2018-01-23T11:16:18.055Z,7.83
2018-01-23T11:17:26.885Z,7.89
2018-01-23T11:18:35.714Z,7.87
2018-01-23T11:19:44.545Z,7.98
2018-01-23T11:20:53.376Z,8.1
2018-01-23T11:22:02.210Z,8.11
2018-01-23T11:23:11.292Z,8.02
2018-01-23T11:24:20.125Z,8.1
2018-01-23T11:25:28.957Z,8.1
2018-01-23T11:26:37.788Z,8.18
2018-01-23T11:27:46.621Z,8.18
2018-01-23T11:28:55.554Z,8.15
2018-01-23T11:30:04.386Z,8.19
2018-01-23T11:31:13.221Z,8.2
2018-01-23T11:32:22.052Z,8.34
2018-01-23T11:33:30.886Z,8.23
2018-01-23T11:34:39.970Z,8.23
2018-01-23T11:35:48.804Z,8.15
2018-01-23T11:36:57.635Z,8.23
2018-01-23T11:38:06.470Z,8.3
2018-01-23T11:39:15.353Z,8.25
2018-01-23T11:40:24.186Z,8.29
2018-01-23T11:41:33.020Z,8.26
2018-01-23T11:42:41.857Z,8.2
2018-01-23T11:43:50.974Z,8.23
2018-01-23T11:45:00.096Z,8.3
2018-01-23T11:46:09.024Z,8.29
2018-01-23T11:47:17.856Z,8.36
2018-01-23T11:48:26.741Z,8.33
2018-01-23T11:49:35.574Z,8.29
2018-01-23T11:50:44.406Z,8.3
2018-01-23T11:51:53.616Z,8.41
2018-01-23T11:53:02.475Z,8.47
2018-01-23T11:54:11.328Z,8.44
2018-01-23T11:55:20.432Z,8.38
2018-01-23T11:56:29.491Z,8.4
2018-01-23T11:57:38.606Z,8.41
2018-01-23T11:58:47.495Z,8.43
2018-01-23T11:59:57.076Z,8.37
2018-01-23T12:01:05.963Z,8.4
2018-01-23T12:02:15.037Z,8.44
2018-01-23T12:03:24.933Z,8.38
2018-01-23T12:04:34.127Z,8.44
2018-01-23T12:05:42.962Z,8.48
2018-01-23T12:06:52.286Z,8.43
2018-01-23T12:08:01.441Z,8.45
2018-01-23T12:09:10.706Z,8.43
2018-01-23T12:10:19.984Z,8.44
2018-01-23T12:11:29.057Z,8.38
2018-01-23T12:12:38.201Z,8.38
2018-01-23T12:13:47.040Z,8.5
2018-01-23T12:14:55.873Z,8.48
2018-01-23T12:16:04.766Z,8.48
2018-01-23T12:17:13.597Z,8.4
2018-01-23T12:18:22.637Z,8.43
2018-01-23T12:19:31.532Z,8.44
2018-01-23T12:21:10.328Z,8.43
2018-01-23T12:22:19.525Z,8.48
2018-01-23T12:23:28.721Z,8.5
2018-01-23T12:24:37.592Z,8.45
2018-01-23T12:25:46.584Z,8.48
2018-01-23T12:26:55.694Z,8.44
2018-01-23T12:28:04.630Z,8.48
2018-01-23T12:29:13.899Z,8.5
2018-01-23T12:30:23.171Z,8.44
2018-01-23T12:31:32.060Z,8.44
2018-01-23T12:32:41.520Z,8.43
2018-01-23T12:33:50.361Z,8.38
2018-01-23T12:35:00.031Z,8.45
2018-01-23T12:36:08.811Z,8.45
2018-01-23T12:37:18.106Z,8.44
2018-01-23T12:38:27.226Z,8.48
2018-01-23T12:39:36.060Z,8.52
2018-01-23T12:40:44.935Z,8.5
2018-01-23T12:41:53.768Z,8.41
2018-01-23T12:43:02.928Z,8.44
2018-01-23T12:44:11.967Z,8.43
2018-01-23T12:45:20.801Z,8.47
2018-01-23T12:46:29.634Z,8.48
2018-01-23T12:47:38.466Z,8.43
2018-01-23T12:48:47.369Z,8.43
2018-01-23T12:49:56.186Z,8.48
2018-01-23T12:51:05.021Z,8.48
2018-01-23T12:52:14.127Z,8.43
2018-01-23T12:53:22.959Z,8.5
2018-01-23T12:54:31.841Z,8.44
2018-01-23T12:55:40.979Z,8.45
2018-01-23T12:56:49.810Z,8.48
2018-01-23T12:57:58.652Z,8.43
2018-01-23T12:59:08.088Z,8.43
2018-01-23T13:00:17.037Z,8.52
2018-01-23T13:01:25.867Z,8.52
2018-01-23T13:02:35.002Z,8.58
2018-01-23T13:03:44.244Z,8.48
2018-01-23T13:04:53.073Z,8.55
2018-01-23T13:06:02.106Z,8.58
2018-01-23T13:07:10.941Z,8.5
2018-01-23T13:08:20.051Z,8.55
2018-01-23T13:09:28.883Z,8.56
2018-01-23T13:10:37.995Z,8.52
2018-01-23T13:11:47.159Z,8.55
2018-01-23T13:12:55.991Z,8.58
2018-01-23T13:14:04.826Z,8.56
2018-01-23T13:15:13.658Z,8.55
2018-01-23T13:16:22.768Z,8.5
2018-01-23T13:17:31.934Z,8.55
2018-01-23T13:18:40.731Z,8.53
2018-01-23T13:19:49.834Z,8.63
2018-01-23T13:20:58.667Z,8.61
2018-01-23T13:22:07.500Z,8.61
2018-01-23T13:23:16.434Z,8.58
2018-01-23T13:24:25.269Z,8.59
2018-01-23T13:25:34.105Z,8.61
2018-01-23T13:26:42.936Z,8.59
2018-01-23T13:27:51.768Z,8.59
2018-01-23T13:29:00.654Z,8.63
2018-01-23T13:30:09.486Z,8.56
2018-01-23T13:31:18.319Z,8.63
2018-01-23T13:32:27.151Z,8.63
2018-01-23T13:33:35.985Z,8.59
2018-01-23T13:34:44.873Z,8.59
2018-01-23T13:35:53.977Z,8.66
2018-01-23T13:37:02.811Z,8.66
2018-01-23T13:38:11.644Z,8.79
2018-01-23T13:39:20.751Z,8.76
2018-01-23T13:40:29.686Z,8.81
2018-01-23T13:41:38.518Z,8.73
2018-01-23T13:42:47.352Z,8.66
2018-01-23T13:43:56.185Z,8.59
2018-01-23T13:45:05.018Z,8.58
2018-01-23T13:46:13.901Z,8.59
2018-01-23T13:47:22.734Z,8.59
2018-01-23T13:48:31.575Z,8.63
2018-01-23T13:49:40.411Z,8.61
2018-01-23T13:50:49.241Z,8.62
2018-01-23T13:51:58.229Z,8.58
2018-01-23T13:53:07.065Z,8.58
2018-01-23T13:54:15.896Z,8.58
2018-01-23T13:55:24.728Z,8.63
2018-01-23T13:56:33.561Z,8.59
2018-01-23T13:57:42.946Z,8.68
2018-01-23T13:58:51.779Z,8.62
2018-01-23T14:00:00.888Z,8.59
2018-01-23T14:01:10.046Z,8.55
2018-01-23T14:02:18.880Z,8.59
2018-01-23T14:03:27.777Z,8.61
2018-01-23T14:04:36.594Z,8.61
2018-01-23T14:05:45.428Z,8.52
2018-01-23T14:06:54.261Z,8.55
2018-01-23T14:08:03.093Z,8.58
2018-01-23T14:09:12.079Z,8.56
2018-01-23T14:10:20.913Z,8.48
2018-01-23T14:11:30.022Z,8.56
2018-01-23T14:12:38.855Z,8.56
2018-01-23T14:13:47.686Z,8.55
2018-01-23T14:14:56.569Z,8.55
2018-01-23T14:16:05.401Z,8.59
2018-01-23T14:17:14.608Z,8.58
2018-01-23T14:18:23.448Z,8.58
2018-01-23T14:19:32.552Z,8.5
2018-01-23T14:20:41.390Z,8.59
2018-01-23T14:21:50.224Z,8.56
2018-01-23T14:22:59.055Z,8.58
2018-01-23T14:24:07.887Z,8.62
2018-01-23T14:25:16.719Z,8.59
2018-01-23T14:26:25.702Z,8.56
2018-01-23T14:27:34.807Z,8.58
2018-01-23T14:28:43.638Z,8.59
2018-01-23T14:29:52.470Z,8.53
2018-01-23T14:31:01.303Z,8.53
2018-01-23T14:32:10.236Z,8.56
2018-01-23T14:33:19.068Z,8.55
2018-01-23T14:34:27.897Z,8.5
2018-01-23T14:35:36.731Z,8.61
2018-01-23T14:36:45.564Z,8.44
2018-01-23T14:37:54.448Z,8.47
2018-01-23T14:39:03.282Z,8.48
2018-01-23T14:40:12.115Z,8.44
2018-01-23T14:41:20.952Z,8.48
2018-01-23T14:42:29.783Z,8.53
2018-01-23T14:43:38.667Z,8.55
2018-01-23T14:44:47.501Z,8.47
2018-01-23T14:45:56.331Z,8.47
2018-01-23T14:47:05.165Z,8.48
2018-01-23T14:48:13.997Z,8.44
2018-01-23T14:49:22.879Z,8.53
2018-01-23T14:50:31.712Z,8.47
2018-01-23T14:51:40.544Z,8.45
2018-01-23T14:52:49.376Z,8.47
2018-01-23T14:53:58.204Z,8.45
2018-01-23T14:55:07.287Z,8.45
2018-01-23T14:56:16.120Z,8.48
2018-01-23T14:57:24.953Z,8.55
2018-01-23T14:58:33.785Z,8.45
2018-01-23T14:59:42.626Z,8.48
2018-01-23T15:00:51.609Z,8.44
2018-01-23T15:02:00.444Z,8.44
2018-01-23T15:03:09.276Z,8.48
2018-01-23T15:04:18.108Z,8.45
2018-01-23T15:05:26.941Z,8.44
2018-01-23T15:06:36.115Z,8.44
2018-01-23T15:07:44.905Z,8.38
2018-01-23T15:08:53.748Z,8.45
2018-01-23T15:10:02.571Z,8.41
2018-01-23T15:11:11.400Z,8.37
2018-01-23T15:12:20.269Z,8.34
2018-01-23T15:13:29.066Z,8.43
2018-01-23T15:14:37.899Z,8.44
2018-01-23T15:15:46.735Z,8.43
2018-01-23T15:16:55.566Z,8.3
2018-01-23T15:18:04.397Z,8.43
2018-01-23T15:19:13.231Z,8.37